sensor_id;sensor_type;location;lat;lon;timestamp;P1;durP1;ratioP1;P2;durP2;ratioP2
75628;SDS011;64213;46.452;16.994;2023-01-23T00:01:38;21.42;;;6.72;;
75628;SDS011;64213;46.452;16.994;2023-01-23T00:04:40;25.90;;;9.00;;
75628;SDS011;64213;46.452;16.994;2023-01-23T00:07:43;23.53;;;8.50;;
75628;SDS011;64213;46.452;16.994;2023-01-23T00:10:45;24.45;;;7.18;;
75628;SDS011;64213;46.452;16.994;2023-01-23T00:13:47;28.10;;;10.38;;
75628;SDS011;64213;46.452;16.994;2023-01-23T00:16:49;19.05;;;8.13;;
75628;SDS011;64213;46.452;16.994;2023-01-23T00:19:52;22.30;;;7.10;;
75628;SDS011;64213;46.452;16.994;2023-01-23T00:22:55;17.67;;;7.00;;
75628;SDS011;64213;46.452;16.994;2023-01-23T00:26:17;21.52;;;6.87;;
75628;SDS011;64213;46.452;16.994;2023-01-23T00:29:21;23.48;;;8.20;;
75628;SDS011;64213;46.452;16.994;2023-01-23T00:32:24;20.45;;;7.25;;
75628;SDS011;64213;46.452;16.994;2023-01-23T00:35:26;14.10;;;5.40;;
75628;SDS011;64213;46.452;16.994;2023-01-23T00:38:28;13.80;;;4.33;;
75628;SDS011;64213;46.452;16.994;2023-01-23T00:41:30;14.50;;;6.03;;
75628;SDS011;64213;46.452;16.994;2023-01-23T00:44:33;12.77;;;4.85;;
75628;SDS011;64213;46.452;16.994;2023-01-23T00:47:35;18.08;;;6.43;;
75628;SDS011;64213;46.452;16.994;2023-01-23T00:50:38;12.97;;;5.77;;
75628;SDS011;64213;46.452;16.994;2023-01-23T00:53:40;15.83;;;6.33;;
75628;SDS011;64213;46.452;16.994;2023-01-23T00:56:42;23.30;;;8.63;;
75628;SDS011;64213;46.452;16.994;2023-01-23T00:59:45;24.55;;;9.52;;
75628;SDS011;64213;46.452;16.994;2023-01-23T01:02:47;18.98;;;7.72;;
75628;SDS011;64213;46.452;16.994;2023-01-23T01:05:49;14.40;;;4.97;;
75628;SDS011;64213;46.452;16.994;2023-01-23T01:08:53;14.97;;;5.80;;
75628;SDS011;64213;46.452;16.994;2023-01-23T01:11:55;9.98;;;3.65;;
75628;SDS011;64213;46.452;16.994;2023-01-23T01:14:57;9.40;;;4.55;;
75628;SDS011;64213;46.452;16.994;2023-01-23T01:17:59;17.33;;;7.03;;
75628;SDS011;64213;46.452;16.994;2023-01-23T01:21:04;11.97;;;4.40;;
75628;SDS011;64213;46.452;16.994;2023-01-23T01:24:10;16.70;;;6.30;;
75628;SDS011;64213;46.452;16.994;2023-01-23T01:27:13;20.80;;;7.60;;
75628;SDS011;64213;46.452;16.994;2023-01-23T01:30:15;15.55;;;7.20;;
75628;SDS011;64213;46.452;16.994;2023-01-23T01:33:19;22.65;;;7.10;;
75628;SDS011;64213;46.452;16.994;2023-01-23T01:36:22;23.03;;;8.13;;
75628;SDS011;64213;46.452;16.994;2023-01-23T01:39:25;23.53;;;8.90;;
75628;SDS011;64213;46.452;16.994;2023-01-23T01:42:27;16.33;;;6.07;;
75628;SDS011;64213;46.452;16.994;2023-01-23T01:52:17;14.67;;;4.30;;
75628;SDS011;64213;46.452;16.994;2023-01-23T01:55:22;32.10;;;10.60;;
75628;SDS011;64213;46.452;16.994;2023-01-23T01:58:25;23.67;;;7.65;;
75628;SDS011;64213;46.452;16.994;2023-01-23T02:01:29;20.02;;;8.05;;
75628;SDS011;64213;46.452;16.994;2023-01-23T02:04:32;17.70;;;6.55;;
75628;SDS011;64213;46.452;16.994;2023-01-23T02:10:55;26.83;;;7.70;;
75628;SDS011;64213;46.452;16.994;2023-01-23T02:13:57;24.10;;;9.25;;
75628;SDS011;64213;46.452;16.994;2023-01-23T02:16:59;21.67;;;8.00;;
75628;SDS011;64213;46.452;16.994;2023-01-23T02:20:08;22.17;;;6.97;;
75628;SDS011;64213;46.452;16.994;2023-01-23T02:26:30;19.73;;;8.53;;
75628;SDS011;64213;46.452;16.994;2023-01-23T02:29:44;14.25;;;6.85;;
75628;SDS011;64213;46.452;16.994;2023-01-23T02:32:49;17.25;;;7.22;;
75628;SDS011;64213;46.452;16.994;2023-01-23T02:35:51;17.65;;;6.28;;
75628;SDS011;64213;46.452;16.994;2023-01-23T02:42:04;26.87;;;8.13;;
75628;SDS011;64213;46.452;16.994;2023-01-23T02:45:07;20.80;;;8.48;;
75628;SDS011;64213;46.452;16.994;2023-01-23T02:48:10;22.83;;;9.07;;
75628;SDS011;64213;46.452;16.994;2023-01-23T02:51:12;17.98;;;7.50;;
75628;SDS011;64213;46.452;16.994;2023-01-23T02:54:15;13.40;;;5.87;;
75628;SDS011;64213;46.452;16.994;2023-01-23T02:57:18;21.23;;;8.63;;
75628;SDS011;64213;46.452;16.994;2023-01-23T03:00:20;12.95;;;4.95;;
75628;SDS011;64213;46.452;16.994;2023-01-23T03:03:23;16.12;;;6.87;;
75628;SDS011;64213;46.452;16.994;2023-01-23T03:06:25;9.32;;;3.60;;
75628;SDS011;64213;46.452;16.994;2023-01-23T03:09:27;15.93;;;6.70;;
75628;SDS011;64213;46.452;16.994;2023-01-23T03:12:30;24.13;;;9.50;;
75628;SDS011;64213;46.452;16.994;2023-01-23T03:15:32;15.98;;;5.87;;
75628;SDS011;64213;46.452;16.994;2023-01-23T03:18:36;19.77;;;8.05;;
75628;SDS011;64213;46.452;16.994;2023-01-23T03:21:54;17.48;;;7.03;;
75628;SDS011;64213;46.452;16.994;2023-01-23T03:24:56;27.23;;;9.80;;
75628;SDS011;64213;46.452;16.994;2023-01-23T03:27:59;19.43;;;8.23;;
75628;SDS011;64213;46.452;16.994;2023-01-23T03:31:01;26.42;;;11.48;;
75628;SDS011;64213;46.452;16.994;2023-01-23T03:34:03;22.35;;;9.27;;
75628;SDS011;64213;46.452;16.994;2023-01-23T03:37:06;20.62;;;8.82;;
75628;SDS011;64213;46.452;16.994;2023-01-23T03:40:19;20.50;;;7.07;;
75628;SDS011;64213;46.452;16.994;2023-01-23T03:43:42;23.00;;;9.70;;
75628;SDS011;64213;46.452;16.994;2023-01-23T03:46:45;18.98;;;8.43;;
75628;SDS011;64213;46.452;16.994;2023-01-23T03:49:48;15.52;;;5.47;;
75628;SDS011;64213;46.452;16.994;2023-01-23T03:52:50;17.83;;;5.62;;
75628;SDS011;64213;46.452;16.994;2023-01-23T03:55:52;19.00;;;6.83;;
75628;SDS011;64213;46.452;16.994;2023-01-23T03:58:55;22.03;;;8.53;;
75628;SDS011;64213;46.452;16.994;2023-01-23T04:01:58;16.77;;;7.10;;
75628;SDS011;64213;46.452;16.994;2023-01-23T04:05:04;13.15;;;5.65;;
75628;SDS011;64213;46.452;16.994;2023-01-23T04:08:07;20.85;;;7.65;;
75628;SDS011;64213;46.452;16.994;2023-01-23T04:11:10;17.90;;;8.00;;
75628;SDS011;64213;46.452;16.994;2023-01-23T04:14:13;21.77;;;8.73;;
75628;SDS011;64213;46.452;16.994;2023-01-23T04:17:16;22.58;;;7.95;;
75628;SDS011;64213;46.452;16.994;2023-01-23T04:20:18;17.75;;;7.00;;
75628;SDS011;64213;46.452;16.994;2023-01-23T04:23:21;18.55;;;6.60;;
75628;SDS011;64213;46.452;16.994;2023-01-23T04:26:24;14.87;;;5.33;;
75628;SDS011;64213;46.452;16.994;2023-01-23T04:29:26;13.90;;;6.00;;
75628;SDS011;64213;46.452;16.994;2023-01-23T04:32:28;18.83;;;6.65;;
75628;SDS011;64213;46.452;16.994;2023-01-23T04:35:30;19.23;;;7.50;;
75628;SDS011;64213;46.452;16.994;2023-01-23T04:38:33;22.85;;;10.68;;
75628;SDS011;64213;46.452;16.994;2023-01-23T04:41:35;16.97;;;6.90;;
75628;SDS011;64213;46.452;16.994;2023-01-23T04:44:37;15.87;;;6.17;;
75628;SDS011;64213;46.452;16.994;2023-01-23T04:47:39;20.42;;;8.00;;
75628;SDS011;64213;46.452;16.994;2023-01-23T04:50:42;16.50;;;5.87;;
75628;SDS011;64213;46.452;16.994;2023-01-23T04:53:44;27.55;;;12.32;;
75628;SDS011;64213;46.452;16.994;2023-01-23T04:56:46;16.77;;;6.73;;
75628;SDS011;64213;46.452;16.994;2023-01-23T04:59:49;21.37;;;8.93;;
75628;SDS011;64213;46.452;16.994;2023-01-23T05:02:51;16.50;;;7.12;;
75628;SDS011;64213;46.452;16.994;2023-01-23T05:05:54;21.00;;;9.60;;
75628;SDS011;64213;46.452;16.994;2023-01-23T05:08:56;23.62;;;10.82;;
75628;SDS011;64213;46.452;16.994;2023-01-23T05:11:58;14.97;;;6.47;;
75628;SDS011;64213;46.452;16.994;2023-01-23T05:15:01;18.23;;;7.30;;
75628;SDS011;64213;46.452;16.994;2023-01-23T05:18:03;18.83;;;7.57;;
75628;SDS011;64213;46.452;16.994;2023-01-23T05:21:05;19.08;;;7.43;;
75628;SDS011;64213;46.452;16.994;2023-01-23T05:24:08;14.00;;;4.65;;
75628;SDS011;64213;46.452;16.994;2023-01-23T05:27:11;17.73;;;6.50;;
75628;SDS011;64213;46.452;16.994;2023-01-23T05:30:13;20.80;;;7.07;;
75628;SDS011;64213;46.452;16.994;2023-01-23T05:33:16;15.10;;;7.20;;
75628;SDS011;64213;46.452;16.994;2023-01-23T05:36:18;12.68;;;5.57;;
75628;SDS011;64213;46.452;16.994;2023-01-23T05:39:20;24.25;;;10.02;;
75628;SDS011;64213;46.452;16.994;2023-01-23T05:42:23;26.70;;;10.93;;
75628;SDS011;64213;46.452;16.994;2023-01-23T05:45:25;17.87;;;8.23;;
75628;SDS011;64213;46.452;16.994;2023-01-23T05:48:27;12.95;;;5.35;;
75628;SDS011;64213;46.452;16.994;2023-01-23T05:51:30;16.27;;;5.37;;
75628;SDS011;64213;46.452;16.994;2023-01-23T05:54:34;25.00;;;10.57;;
75628;SDS011;64213;46.452;16.994;2023-01-23T05:57:36;15.87;;;6.93;;
75628;SDS011;64213;46.452;16.994;2023-01-23T06:00:45;12.63;;;6.23;;
75628;SDS011;64213;46.452;16.994;2023-01-23T06:03:47;16.62;;;6.43;;
75628;SDS011;64213;46.452;16.994;2023-01-23T06:06:50;18.02;;;7.15;;
75628;SDS011;64213;46.452;16.994;2023-01-23T06:09:52;12.80;;;5.90;;
75628;SDS011;64213;46.452;16.994;2023-01-23T06:12:54;16.40;;;7.30;;
75628;SDS011;64213;46.452;16.994;2023-01-23T06:15:56;19.27;;;7.67;;
75628;SDS011;64213;46.452;16.994;2023-01-23T06:18:59;26.33;;;8.80;;
75628;SDS011;64213;46.452;16.994;2023-01-23T06:22:01;18.92;;;7.97;;
75628;SDS011;64213;46.452;16.994;2023-01-23T06:25:03;13.88;;;5.47;;
75628;SDS011;64213;46.452;16.994;2023-01-23T06:28:06;15.63;;;6.67;;
75628;SDS011;64213;46.452;16.994;2023-01-23T06:31:08;17.90;;;6.27;;
75628;SDS011;64213;46.452;16.994;2023-01-23T06:34:11;20.35;;;9.20;;
75628;SDS011;64213;46.452;16.994;2023-01-23T06:37:13;17.42;;;6.68;;
75628;SDS011;64213;46.452;16.994;2023-01-23T06:40:16;22.77;;;8.15;;
75628;SDS011;64213;46.452;16.994;2023-01-23T06:43:19;18.20;;;6.90;;
75628;SDS011;64213;46.452;16.994;2023-01-23T06:46:22;13.13;;;4.07;;
75628;SDS011;64213;46.452;16.994;2023-01-23T06:49:25;19.00;;;7.10;;
75628;SDS011;64213;46.452;16.994;2023-01-23T06:52:27;15.77;;;7.05;;
75628;SDS011;64213;46.452;16.994;2023-01-23T06:55:30;25.88;;;9.73;;
75628;SDS011;64213;46.452;16.994;2023-01-23T06:58:33;22.97;;;8.97;;
75628;SDS011;64213;46.452;16.994;2023-01-23T07:01:36;32.87;;;12.47;;
75628;SDS011;64213;46.452;16.994;2023-01-23T07:04:39;30.30;;;11.02;;
75628;SDS011;64213;46.452;16.994;2023-01-23T07:07:41;30.40;;;11.02;;
75628;SDS011;64213;46.452;16.994;2023-01-23T07:10:43;31.17;;;10.73;;
75628;SDS011;64213;46.452;16.994;2023-01-23T07:13:45;19.60;;;8.70;;
75628;SDS011;64213;46.452;16.994;2023-01-23T07:16:47;32.53;;;12.40;;
75628;SDS011;64213;46.452;16.994;2023-01-23T07:19:49;20.35;;;7.45;;
75628;SDS011;64213;46.452;16.994;2023-01-23T07:22:55;23.70;;;9.10;;
75628;SDS011;64213;46.452;16.994;2023-01-23T07:26:01;25.55;;;9.98;;
75628;SDS011;64213;46.452;16.994;2023-01-23T07:29:08;27.73;;;9.83;;
75628;SDS011;64213;46.452;16.994;2023-01-23T07:32:10;19.17;;;7.87;;
75628;SDS011;64213;46.452;16.994;2023-01-23T07:35:12;28.65;;;11.95;;
75628;SDS011;64213;46.452;16.994;2023-01-23T07:38:14;18.20;;;6.10;;
75628;SDS011;64213;46.452;16.994;2023-01-23T07:41:17;17.87;;;6.68;;
75628;SDS011;64213;46.452;16.994;2023-01-23T07:44:20;17.17;;;5.93;;
75628;SDS011;64213;46.452;16.994;2023-01-23T07:47:22;21.90;;;8.67;;
75628;SDS011;64213;46.452;16.994;2023-01-23T07:50:24;15.77;;;5.50;;
75628;SDS011;64213;46.452;16.994;2023-01-23T07:53:27;12.95;;;4.62;;
75628;SDS011;64213;46.452;16.994;2023-01-23T07:56:29;23.10;;;8.48;;
75628;SDS011;64213;46.452;16.994;2023-01-23T07:59:31;22.73;;;8.20;;
75628;SDS011;64213;46.452;16.994;2023-01-23T08:02:33;20.47;;;7.47;;
75628;SDS011;64213;46.452;16.994;2023-01-23T08:05:35;17.15;;;7.20;;
75628;SDS011;64213;46.452;16.994;2023-01-23T08:08:38;29.55;;;10.55;;
75628;SDS011;64213;46.452;16.994;2023-01-23T08:11:40;16.65;;;6.00;;
75628;SDS011;64213;46.452;16.994;2023-01-23T08:14:46;18.30;;;8.00;;
75628;SDS011;64213;46.452;16.994;2023-01-23T08:17:48;28.47;;;11.43;;
75628;SDS011;64213;46.452;16.994;2023-01-23T08:20:52;18.83;;;6.30;;
75628;SDS011;64213;46.452;16.994;2023-01-23T08:23:59;26.17;;;9.80;;
75628;SDS011;64213;46.452;16.994;2023-01-23T08:27:02;14.57;;;5.43;;
75628;SDS011;64213;46.452;16.994;2023-01-23T08:30:07;14.40;;;5.47;;
75628;SDS011;64213;46.452;16.994;2023-01-23T08:33:09;26.97;;;10.10;;
75628;SDS011;64213;46.452;16.994;2023-01-23T08:36:12;17.27;;;6.47;;
75628;SDS011;64213;46.452;16.994;2023-01-23T08:39:15;18.17;;;7.55;;
75628;SDS011;64213;46.452;16.994;2023-01-23T08:42:18;19.70;;;6.35;;
75628;SDS011;64213;46.452;16.994;2023-01-23T08:45:20;24.53;;;8.90;;
75628;SDS011;64213;46.452;16.994;2023-01-23T08:48:23;22.93;;;8.33;;
75628;SDS011;64213;46.452;16.994;2023-01-23T08:51:26;18.90;;;7.35;;
75628;SDS011;64213;46.452;16.994;2023-01-23T08:54:29;15.80;;;6.37;;
75628;SDS011;64213;46.452;16.994;2023-01-23T08:57:31;24.75;;;9.88;;
75628;SDS011;64213;46.452;16.994;2023-01-23T09:00:38;18.83;;;7.73;;
75628;SDS011;64213;46.452;16.994;2023-01-23T09:03:41;18.83;;;6.73;;
75628;SDS011;64213;46.452;16.994;2023-01-23T09:06:43;14.35;;;5.53;;
75628;SDS011;64213;46.452;16.994;2023-01-23T09:09:45;16.05;;;6.80;;
75628;SDS011;64213;46.452;16.994;2023-01-23T09:12:54;14.00;;;5.20;;
75628;SDS011;64213;46.452;16.994;2023-01-23T09:15:57;26.50;;;10.70;;
75628;SDS011;64213;46.452;16.994;2023-01-23T09:18:59;24.10;;;9.10;;
75628;SDS011;64213;46.452;16.994;2023-01-23T09:22:02;23.02;;;8.15;;
75628;SDS011;64213;46.452;16.994;2023-01-23T09:25:05;16.60;;;5.93;;
75628;SDS011;64213;46.452;16.994;2023-01-23T09:28:08;18.08;;;6.37;;
75628;SDS011;64213;46.452;16.994;2023-01-23T09:31:11;18.87;;;7.10;;
75628;SDS011;64213;46.452;16.994;2023-01-23T09:34:14;20.87;;;8.03;;
75628;SDS011;64213;46.452;16.994;2023-01-23T09:37:18;12.80;;;4.93;;
75628;SDS011;64213;46.452;16.994;2023-01-23T09:40:21;21.30;;;8.30;;
75628;SDS011;64213;46.452;16.994;2023-01-23T09:46:38;17.53;;;6.47;;
75628;SDS011;64213;46.452;16.994;2023-01-23T09:49:48;23.20;;;7.77;;
75628;SDS011;64213;46.452;16.994;2023-01-23T09:53:07;19.02;;;6.95;;
75628;SDS011;64213;46.452;16.994;2023-01-23T09:56:26;20.40;;;7.53;;
75628;SDS011;64213;46.452;16.994;2023-01-23T10:02:33;12.80;;;4.47;;
75628;SDS011;64213;46.452;16.994;2023-01-23T10:05:40;18.93;;;6.43;;
75628;SDS011;64213;46.452;16.994;2023-01-23T10:18:25;28.53;;;9.20;;
75628;SDS011;64213;46.452;16.994;2023-01-23T10:25:19;18.37;;;7.93;;
75628;SDS011;64213;46.452;16.994;2023-01-23T10:31:42;20.80;;;7.87;;
75628;SDS011;64213;46.452;16.994;2023-01-23T10:38:11;18.13;;;7.33;;
75628;SDS011;64213;46.452;16.994;2023-01-23T10:41:21;23.30;;;8.95;;
75628;SDS011;64213;46.452;16.994;2023-01-23T10:44:24;25.55;;;10.40;;
75628;SDS011;64213;46.452;16.994;2023-01-23T10:47:40;23.38;;;9.15;;
75628;SDS011;64213;46.452;16.994;2023-01-23T10:50:46;22.67;;;7.90;;
75628;SDS011;64213;46.452;16.994;2023-01-23T10:57:47;18.40;;;6.97;;
75628;SDS011;64213;46.452;16.994;2023-01-23T11:00:50;25.58;;;8.70;;
75628;SDS011;64213;46.452;16.994;2023-01-23T11:03:53;26.90;;;8.85;;
75628;SDS011;64213;46.452;16.994;2023-01-23T11:07:09;11.90;;;4.57;;
75628;SDS011;64213;46.452;16.994;2023-01-23T11:10:19;21.20;;;10.03;;
75628;SDS011;64213;46.452;16.994;2023-01-23T11:13:24;24.33;;;8.65;;
75628;SDS011;64213;46.452;16.994;2023-01-23T11:16:33;17.95;;;7.15;;
75628;SDS011;64213;46.452;16.994;2023-01-23T11:19:36;29.37;;;10.85;;
75628;SDS011;64213;46.452;16.994;2023-01-23T11:22:39;26.57;;;10.33;;
75628;SDS011;64213;46.452;16.994;2023-01-23T11:25:44;25.70;;;7.33;;
75628;SDS011;64213;46.452;16.994;2023-01-23T11:28:48;24.63;;;9.60;;
75628;SDS011;64213;46.452;16.994;2023-01-23T11:31:56;31.42;;;10.57;;
75628;SDS011;64213;46.452;16.994;2023-01-23T11:35:05;30.48;;;9.95;;
75628;SDS011;64213;46.452;16.994;2023-01-23T11:38:24;19.93;;;6.77;;
75628;SDS011;64213;46.452;16.994;2023-01-23T11:41:32;31.17;;;11.20;;
75628;SDS011;64213;46.452;16.994;2023-01-23T11:44:37;28.50;;;10.55;;
75628;SDS011;64213;46.452;16.994;2023-01-23T11:48:13;25.67;;;9.15;;
75628;SDS011;64213;46.452;16.994;2023-01-23T11:51:46;36.22;;;11.02;;
75628;SDS011;64213;46.452;16.994;2023-01-23T11:55:03;26.93;;;10.30;;
75628;SDS011;64213;46.452;16.994;2023-01-23T12:01:43;13.13;;;5.22;;
75628;SDS011;64213;46.452;16.994;2023-01-23T12:21:48;12.95;;;5.60;;
75628;SDS011;64213;46.452;16.994;2023-01-23T12:28:53;11.50;;;5.17;;
75628;SDS011;64213;46.452;16.994;2023-01-23T12:39:18;14.87;;;5.75;;
75628;SDS011;64213;46.452;16.994;2023-01-23T12:45:39;14.30;;;5.30;;
75628;SDS011;64213;46.452;16.994;2023-01-23T12:48:56;21.90;;;7.33;;
75628;SDS011;64213;46.452;16.994;2023-01-23T12:55:24;18.02;;;6.15;;
75628;SDS011;64213;46.452;16.994;2023-01-23T12:58:40;19.85;;;6.75;;
75628;SDS011;64213;46.452;16.994;2023-01-23T13:01:59;20.13;;;7.90;;
75628;SDS011;64213;46.452;16.994;2023-01-23T13:08:24;22.50;;;7.95;;
75628;SDS011;64213;46.452;16.994;2023-01-23T13:18:24;24.23;;;7.47;;
75628;SDS011;64213;46.452;16.994;2023-01-23T13:21:28;20.23;;;6.37;;
75628;SDS011;64213;46.452;16.994;2023-01-23T13:24:50;26.37;;;8.40;;
75628;SDS011;64213;46.452;16.994;2023-01-23T13:28:31;17.73;;;6.05;;
75628;SDS011;64213;46.452;16.994;2023-01-23T13:31:46;18.73;;;6.60;;
75628;SDS011;64213;46.452;16.994;2023-01-23T13:34:51;15.87;;;5.73;;
75628;SDS011;64213;46.452;16.994;2023-01-23T13:37:53;13.10;;;4.10;;
75628;SDS011;64213;46.452;16.994;2023-01-23T13:47:23;15.52;;;6.32;;
75628;SDS011;64213;46.452;16.994;2023-01-23T13:51:25;25.53;;;10.57;;
75628;SDS011;64213;46.452;16.994;2023-01-23T13:54:41;18.20;;;7.30;;
75628;SDS011;64213;46.452;16.994;2023-01-23T13:58:17;17.25;;;6.95;;
75628;SDS011;64213;46.452;16.994;2023-01-23T14:01:39;22.10;;;7.40;;
75628;SDS011;64213;46.452;16.994;2023-01-23T14:05:21;26.58;;;9.15;;
75628;SDS011;64213;46.452;16.994;2023-01-23T14:08:44;24.37;;;8.73;;
75628;SDS011;64213;46.452;16.994;2023-01-23T14:12:05;20.23;;;8.20;;
75628;SDS011;64213;46.452;16.994;2023-01-23T14:15:23;28.52;;;10.07;;
75628;SDS011;64213;46.452;16.994;2023-01-23T14:18:59;27.60;;;10.60;;
75628;SDS011;64213;46.452;16.994;2023-01-23T14:22:15;24.23;;;9.07;;
75628;SDS011;64213;46.452;16.994;2023-01-23T14:25:18;27.30;;;11.10;;
75628;SDS011;64213;46.452;16.994;2023-01-23T14:28:20;19.43;;;7.23;;
75628;SDS011;64213;46.452;16.994;2023-01-23T14:31:33;27.27;;;11.27;;
75628;SDS011;64213;46.452;16.994;2023-01-23T14:34:37;29.35;;;9.93;;
75628;SDS011;64213;46.452;16.994;2023-01-23T14:37:40;26.45;;;11.12;;
75628;SDS011;64213;46.452;16.994;2023-01-23T14:40:45;27.90;;;10.97;;
75628;SDS011;64213;46.452;16.994;2023-01-23T14:43:52;28.63;;;10.77;;
75628;SDS011;64213;46.452;16.994;2023-01-23T14:46:57;27.92;;;11.38;;
75628;SDS011;64213;46.452;16.994;2023-01-23T14:50:01;28.42;;;10.60;;
75628;SDS011;64213;46.452;16.994;2023-01-23T14:53:13;31.02;;;11.15;;
75628;SDS011;64213;46.452;16.994;2023-01-23T14:56:16;29.40;;;11.47;;
75628;SDS011;64213;46.452;16.994;2023-01-23T14:59:22;27.93;;;9.93;;
75628;SDS011;64213;46.452;16.994;2023-01-23T15:02:34;33.33;;;11.20;;
75628;SDS011;64213;46.452;16.994;2023-01-23T15:05:37;23.08;;;9.13;;
75628;SDS011;64213;46.452;16.994;2023-01-23T15:08:41;29.37;;;11.02;;
75628;SDS011;64213;46.452;16.994;2023-01-23T15:11:44;24.03;;;9.63;;
75628;SDS011;64213;46.452;16.994;2023-01-23T15:14:46;17.93;;;7.33;;
75628;SDS011;64213;46.452;16.994;2023-01-23T15:17:55;21.85;;;8.90;;
75628;SDS011;64213;46.452;16.994;2023-01-23T15:21:03;33.05;;;12.05;;
75628;SDS011;64213;46.452;16.994;2023-01-23T15:27:22;26.03;;;9.43;;
75628;SDS011;64213;46.452;16.994;2023-01-23T15:30:36;20.57;;;7.73;;
75628;SDS011;64213;46.452;16.994;2023-01-23T15:33:43;28.23;;;10.40;;
75628;SDS011;64213;46.452;16.994;2023-01-23T15:36:59;25.70;;;9.70;;
75628;SDS011;64213;46.452;16.994;2023-01-23T15:40:26;14.57;;;6.20;;
75628;SDS011;64213;46.452;16.994;2023-01-23T15:43:30;28.47;;;11.23;;
75628;SDS011;64213;46.452;16.994;2023-01-23T15:46:32;29.50;;;11.60;;
75628;SDS011;64213;46.452;16.994;2023-01-23T15:49:36;31.20;;;12.15;;
75628;SDS011;64213;46.452;16.994;2023-01-23T15:52:47;32.28;;;11.95;;
75628;SDS011;64213;46.452;16.994;2023-01-23T15:55:51;30.05;;;11.88;;
75628;SDS011;64213;46.452;16.994;2023-01-23T15:58:53;34.63;;;12.43;;
75628;SDS011;64213;46.452;16.994;2023-01-23T16:01:56;30.07;;;11.63;;
75628;SDS011;64213;46.452;16.994;2023-01-23T16:04:58;31.00;;;11.98;;
75628;SDS011;64213;46.452;16.994;2023-01-23T16:08:02;30.65;;;11.32;;
75628;SDS011;64213;46.452;16.994;2023-01-23T16:11:06;32.63;;;12.43;;
75628;SDS011;64213;46.452;16.994;2023-01-23T16:14:12;37.00;;;15.60;;
75628;SDS011;64213;46.452;16.994;2023-01-23T16:17:17;29.50;;;12.00;;
75628;SDS011;64213;46.452;16.994;2023-01-23T16:20:20;32.42;;;12.35;;
75628;SDS011;64213;46.452;16.994;2023-01-23T16:23:31;32.55;;;12.68;;
75628;SDS011;64213;46.452;16.994;2023-01-23T16:26:48;34.40;;;13.15;;
75628;SDS011;64213;46.452;16.994;2023-01-23T16:29:51;30.97;;;12.33;;
75628;SDS011;64213;46.452;16.994;2023-01-23T16:32:55;31.67;;;12.17;;
75628;SDS011;64213;46.452;16.994;2023-01-23T16:35:58;22.92;;;10.10;;
75628;SDS011;64213;46.452;16.994;2023-01-23T16:39:00;28.83;;;12.02;;
75628;SDS011;64213;46.452;16.994;2023-01-23T16:42:03;29.70;;;12.00;;
75628;SDS011;64213;46.452;16.994;2023-01-23T16:45:12;32.53;;;11.67;;
75628;SDS011;64213;46.452;16.994;2023-01-23T16:48:16;29.93;;;10.63;;
75628;SDS011;64213;46.452;16.994;2023-01-23T16:51:28;30.27;;;11.88;;
75628;SDS011;64213;46.452;16.994;2023-01-23T16:54:32;31.20;;;12.23;;
75628;SDS011;64213;46.452;16.994;2023-01-23T16:57:36;28.33;;;11.70;;
75628;SDS011;64213;46.452;16.994;2023-01-23T17:00:39;29.23;;;12.20;;
75628;SDS011;64213;46.452;16.994;2023-01-23T17:03:43;29.10;;;12.77;;
75628;SDS011;64213;46.452;16.994;2023-01-23T17:06:46;27.80;;;12.00;;
75628;SDS011;64213;46.452;16.994;2023-01-23T17:09:50;27.62;;;10.93;;
75628;SDS011;64213;46.452;16.994;2023-01-23T17:12:54;26.17;;;9.02;;
75628;SDS011;64213;46.452;16.994;2023-01-23T17:15:58;24.37;;;9.43;;
75628;SDS011;64213;46.452;16.994;2023-01-23T17:19:02;28.07;;;10.20;;
75628;SDS011;64213;46.452;16.994;2023-01-23T17:22:34;32.45;;;11.75;;
75628;SDS011;64213;46.452;16.994;2023-01-23T17:25:43;23.55;;;10.77;;
75628;SDS011;64213;46.452;16.994;2023-01-23T17:29:01;30.00;;;11.20;;
75628;SDS011;64213;46.452;16.994;2023-01-23T17:32:04;29.50;;;12.00;;
75628;SDS011;64213;46.452;16.994;2023-01-23T17:35:11;31.43;;;12.27;;
75628;SDS011;64213;46.452;16.994;2023-01-23T17:38:26;33.13;;;14.35;;
75628;SDS011;64213;46.452;16.994;2023-01-23T17:41:35;37.67;;;13.43;;
75628;SDS011;64213;46.452;16.994;2023-01-23T17:44:38;31.92;;;13.07;;
75628;SDS011;64213;46.452;16.994;2023-01-23T17:47:42;35.13;;;12.60;;
75628;SDS011;64213;46.452;16.994;2023-01-23T17:50:48;32.03;;;11.87;;
75628;SDS011;64213;46.452;16.994;2023-01-23T17:53:51;29.60;;;12.60;;
75628;SDS011;64213;46.452;16.994;2023-01-23T17:56:58;28.70;;;11.93;;
75628;SDS011;64213;46.452;16.994;2023-01-23T18:00:01;29.27;;;11.00;;
75628;SDS011;64213;46.452;16.994;2023-01-23T18:03:05;30.50;;;12.03;;
75628;SDS011;64213;46.452;16.994;2023-01-23T18:06:13;33.70;;;12.93;;
75628;SDS011;64213;46.452;16.994;2023-01-23T18:09:18;31.55;;;11.90;;
75628;SDS011;64213;46.452;16.994;2023-01-23T18:12:27;30.90;;;12.00;;
75628;SDS011;64213;46.452;16.994;2023-01-23T18:19:17;31.93;;;12.23;;
75628;SDS011;64213;46.452;16.994;2023-01-23T18:22:25;28.20;;;11.53;;
75628;SDS011;64213;46.452;16.994;2023-01-23T18:25:28;35.70;;;12.73;;
75628;SDS011;64213;46.452;16.994;2023-01-23T18:28:34;31.67;;;13.95;;
75628;SDS011;64213;46.452;16.994;2023-01-23T18:31:49;31.92;;;12.93;;
75628;SDS011;64213;46.452;16.994;2023-01-23T18:38:37;28.40;;;11.37;;
75628;SDS011;64213;46.452;16.994;2023-01-23T18:45:19;28.23;;;11.75;;
75628;SDS011;64213;46.452;16.994;2023-01-23T18:48:29;30.15;;;11.57;;
75628;SDS011;64213;46.452;16.994;2023-01-23T18:51:36;26.50;;;9.57;;
75628;SDS011;64213;46.452;16.994;2023-01-23T18:54:51;28.00;;;10.60;;
75628;SDS011;64213;46.452;16.994;2023-01-23T19:04:44;24.48;;;9.30;;
75628;SDS011;64213;46.452;16.994;2023-01-23T19:07:59;35.63;;;12.10;;
75628;SDS011;64213;46.452;16.994;2023-01-23T19:11:04;30.03;;;10.80;;
75628;SDS011;64213;46.452;16.994;2023-01-23T19:17:55;24.67;;;9.63;;
75628;SDS011;64213;46.452;16.994;2023-01-23T19:21:15;27.75;;;8.68;;
75628;SDS011;64213;46.452;16.994;2023-01-23T19:24:27;20.47;;;7.53;;
75628;SDS011;64213;46.452;16.994;2023-01-23T19:27:32;28.77;;;11.77;;
75628;SDS011;64213;46.452;16.994;2023-01-23T19:30:37;16.35;;;7.25;;
75628;SDS011;64213;46.452;16.994;2023-01-23T19:33:41;25.62;;;9.18;;
75628;SDS011;64213;46.452;16.994;2023-01-23T19:36:45;15.05;;;5.20;;
75628;SDS011;64213;46.452;16.994;2023-01-23T19:39:54;25.63;;;10.37;;
75628;SDS011;64213;46.452;16.994;2023-01-23T19:42:58;29.80;;;10.63;;
75628;SDS011;64213;46.452;16.994;2023-01-23T19:46:16;26.70;;;10.77;;
75628;SDS011;64213;46.452;16.994;2023-01-23T19:49:22;23.45;;;9.73;;
75628;SDS011;64213;46.452;16.994;2023-01-23T19:52:26;30.98;;;12.02;;
75628;SDS011;64213;46.452;16.994;2023-01-23T19:55:34;29.87;;;10.53;;
75628;SDS011;64213;46.452;16.994;2023-01-23T19:58:40;29.33;;;10.90;;
75628;SDS011;64213;46.452;16.994;2023-01-23T20:01:50;29.15;;;10.95;;
75628;SDS011;64213;46.452;16.994;2023-01-23T20:04:55;33.45;;;12.73;;
75628;SDS011;64213;46.452;16.994;2023-01-23T20:08:00;28.73;;;11.05;;
75628;SDS011;64213;46.452;16.994;2023-01-23T20:11:03;31.27;;;12.23;;